Jefferson, Iowa
Current Conditions -  °F | °C
As of 8:15 AM on Wednesday 28 Jan 2015 (Local Time) from KCIN Reporting Station
Haze Haze  
Wind Chill: 19°   Ceiling: 500
Heat Index: 30°   Visibility: 2mi
Dew Point: 30°   Wind: 16mph
Humidity: 100%   Direction: 140°SE
Pressure: 29.92"   Gusts: NA
Location:  42.02°N, 94.38°W
Report Text: KCIN 281415Z AUTO 14014KT 2SM BR OVC005 M01/M01 A2992 RMK AO2
Loading
Personal Weather Stations






























Interactive Weather Map New forecast layout! Learn more

10-Day Weather Forecast

Advertisements
Track Severe Weather on mobile